Time;durP1;ratioP1;P1;durP2;ratioP2;P2;SDS_P1;SDS_P2;PMS_P1;PMS_P2;Temp;Humidity;BMP_temperature;BMP_pressure;BME280_temperature;BME280_humidity;BME280_pressure;Samples;Min_cycle;Max_cycle;Signal;HPM_P1;HPM_P2
2021/06/13 00:00:24;;;;;;;8.68;2.65;;;;;;;10.16;48.65;102447.22;5008943;28;20044;-71
2021/06/13 00:02:49;;;;;;;6.85;2.10;;;;;;;10.16;48.40;102445.47;5007787;28;20045;-72
2021/06/13 00:05:16;;;;;;;6.97;1.55;;;;;;;10.11;48.96;102451.66;5011964;28;20038;-71
2021/06/13 00:07:42;;;;;;;12.27;2.53;;;;;;;10.09;48.73;102451.66;5009887;28;20037;-71
2021/06/13 00:10:09;;;;;;;7.60;2.72;;;;;;;10.06;48.62;102451.72;5011894;28;20038;-72
2021/06/13 00:12:35;;;;;;;6.68;2.25;;;;;;;10.10;48.78;102453.41;5009786;28;20045;-72
2021/06/13 00:15:00;;;;;;;9.93;2.10;;;;;;;10.02;49.05;102448.25;5009041;28;20402;-71
2021/06/13 00:17:26;;;;;;;9.15;2.22;;;;;;;10.09;48.87;102454.28;5008540;28;20510;-72
2021/06/13 00:19:52;;;;;;;5.38;1.60;;;;;;;10.20;48.75;102460.22;5010281;28;20053;-72
2021/06/13 00:22:17;;;;;;;8.98;2.20;;;;;;;10.31;48.48;102461.84;5009338;28;20033;-71
2021/06/13 00:24:43;;;;;;;3.25;1.73;;;;;;;10.40;48.32;102466.94;5008322;28;20553;-70
2021/06/13 00:27:08;;;;;;;8.10;1.92;;;;;;;10.51;48.12;102467.66;5011746;28;20040;-70
2021/06/13 00:29:34;;;;;;;4.40;1.67;;;;;;;10.62;48.08;102460.50;5010771;28;20030;-71
2021/06/13 00:31:59;;;;;;;5.47;2.10;;;;;;;10.67;47.84;102452.59;5015905;28;20104;-70
2021/06/13 00:34:27;;;;;;;7.97;2.15;;;;;;;10.48;47.91;102454.63;5013264;28;20037;-70
2021/06/13 00:36:53;;;;;;;10.85;1.98;;;;;;;10.68;47.34;102456.94;5027404;28;20049;-71
2021/06/13 00:39:19;;;;;;;9.80;2.45;;;;;;;10.80;47.31;102455.91;5017370;28;20049;-70
2021/06/13 00:41:47;;;;;;;10.18;1.70;;;;;;;10.93;46.56;102447.00;5011866;28;20041;-71
2021/06/13 00:44:13;;;;;;;9.52;2.13;;;;;;;10.97;46.58;102445.19;5009062;28;20037;-70
2021/06/13 00:46:40;;;;;;;8.73;0.93;;;;;;;10.96;46.05;102443.47;5014572;28;20131;-70
2021/06/13 00:49:07;;;;;;;5.20;2.17;;;;;;;10.94;46.31;102451.31;5010884;28;20061;-71
2021/06/13 00:51:33;;;;;;;5.55;1.63;;;;;;;11.00;45.92;102448.63;5027532;28;20067;-70
2021/06/13 00:53:59;;;;;;;8.65;2.33;;;;;;;10.94;46.12;102446.09;5013215;28;20104;-71
2021/06/13 00:56:27;;;;;;;8.60;1.45;;;;;;;10.79;47.00;102451.53;5008520;28;20068;-71
2021/06/13 00:58:53;;;;;;;4.57;1.33;;;;;;;10.71;47.10;102449.06;5013659;28;20054;-71
2021/06/13 01:01:21;;;;;;;8.98;1.27;;;;;;;10.72;47.10;102449.91;5014079;28;20050;-71
2021/06/13 01:03:48;;;;;;;7.93;2.10;;;;;;;10.72;47.09;102455.16;5013106;28;20037;-71
2021/06/13 01:06:24;;;;;;;6.45;2.15;;;;;;;10.64;47.22;102452.66;5010090;28;20036;-70
2021/06/13 01:08:59;;;;;;;6.10;2.13;;;;;;;10.57;47.46;102453.59;5015334;28;20030;-74
2021/06/13 01:11:39;;;;;;;4.55;1.58;;;;;;;10.71;46.96;102456.91;5015817;28;20030;-73
2021/06/13 01:14:14;;;;;;;12.52;2.75;;;;;;;10.68;46.82;102459.53;4997785;28;20033;-74
2021/06/13 01:16:57;;;;;;;5.13;2.05;;;;;;;10.69;46.67;102465.66;5007835;28;20166;-76
2021/06/13 01:19:22;;;;;;;7.47;1.83;;;;;;;10.70;46.66;102468.22;5012147;28;20487;-70
2021/06/13 01:22:14;;;;;;;11.43;2.08;;;;;;;10.73;46.48;102467.34;5027845;28;20034;-73
2021/06/13 01:24:59;;;;;;;8.57;1.33;;;;;;;10.72;46.68;102471.69;5030323;28;20026;-72
2021/06/13 01:27:49;;;;;;;6.85;1.48;;;;;;;10.71;46.92;102469.13;5001762;28;20101;-71
2021/06/13 01:30:17;;;;;;;9.25;1.42;;;;;;;10.68;46.98;102474.38;5030388;28;20099;-68
2021/06/13 01:32:42;;;;;;;7.20;2.00;;;;;;;10.66;46.90;102476.16;5009513;28;20033;-70
2021/06/13 01:35:13;;;;;;;4.45;1.38;;;;;;;10.66;46.97;102473.53;5011466;28;20034;-70
2021/06/13 01:37:43;;;;;;;10.15;1.73;;;;;;;10.64;46.70;102471.81;5025307;28;20056;-71
2021/06/13 01:40:12;;;;;;;5.90;2.15;;;;;;;10.54;47.07;102482.44;5015296;28;20077;-70
2021/06/13 01:42:48;;;;;;;12.93;2.00;;;;;;;10.59;46.91;102481.50;5016706;28;20029;-70
2021/06/13 01:45:22;;;;;;;13.75;2.78;;;;;;;10.55;47.26;102485.03;5011300;28;20057;-70
2021/06/13 01:47:50;;;;;;;5.03;1.20;;;;;;;10.60;46.97;102482.34;5001325;28;20449;-70
2021/06/13 01:50:18;;;;;;;9.18;2.25;;;;;;;10.56;47.13;102481.50;5028198;28;20121;-70
2021/06/13 01:52:49;;;;;;;7.70;1.27;;;;;;;10.49;47.23;102474.66;5010138;28;20049;-73
2021/06/13 01:55:18;;;;;;;;;;;;;;;10.47;47.61;102486.88;5012805;28;20033;-70
2021/06/13 01:57:44;;;;;;;10.70;2.35;;;;;;;10.40;47.64;102480.00;5011740;28;19920;-70
2021/06/13 02:00:23;;;;;;;12.00;1.73;;;;;;;10.44;47.58;102471.25;5012109;28;20033;-70
2021/06/13 02:02:58;;;;;;;7.95;2.20;;;;;;;10.43;47.34;102477.34;5009440;28;20036;-72
2021/06/13 02:05:35;;;;;;;7.70;1.92;;;;;;;10.43;47.49;102482.56;5029000;28;20018;-71
2021/06/13 02:08:01;;;;;;;6.88;1.30;;;;;;;10.39;47.56;102473.03;5009498;28;20200;-71
2021/06/13 02:10:28;;;;;;;9.52;1.98;;;;;;;10.35;47.92;102479.22;5011964;28;20052;-71
2021/06/13 02:12:56;;;;;;;6.50;1.30;;;;;;;10.31;47.77;102483.59;5012035;28;20034;-70
2021/06/13 02:15:24;;;;;;;5.88;1.98;;;;;;;10.32;47.81;102480.09;5004654;28;20025;-70
2021/06/13 02:17:57;;;;;;;4.10;1.55;;;;;;;10.24;47.62;102473.28;4994057;28;20095;-68
2021/06/13 02:20:26;;;;;;;4.65;1.50;;;;;;;10.14;48.02;102473.38;4998218;28;20054;-69
2021/06/13 02:22:53;;;;;;;10.85;1.40;;;;;;;10.07;48.37;102476.09;5009483;28;20060;-69
2021/06/13 02:25:23;;;;;;;6.57;1.77;;;;;;;9.95;48.25;102479.72;5009251;28;20038;-70
2021/06/13 02:27:56;;;;;;;5.15;1.52;;;;;;;9.93;48.73;102478.88;5012656;28;20044;-70
2021/06/13 02:30:23;;;;;;;9.10;1.83;;;;;;;9.94;48.79;102485.81;4999591;28;20081;-69
2021/06/13 02:32:50;;;;;;;6.20;1.50;;;;;;;10.02;48.63;102486.59;5012976;28;20036;-68
2021/06/13 02:35:18;;;;;;;4.30;1.98;;;;;;;10.02;48.78;102491.81;5009426;28;20068;-68
2021/06/13 02:37:47;;;;;;;9.00;1.63;;;;;;;10.01;48.67;102492.69;4997615;28;20038;-72
2021/06/13 02:40:23;;;;;;;6.05;1.67;;;;;;;10.05;48.52;102490.91;5010108;28;20061;-71
2021/06/13 02:42:48;;;;;;;4.53;1.48;;;;;;;9.98;48.66;102497.97;5012020;28;20034;-71
2021/06/13 02:45:21;;;;;;;7.43;1.33;;;;;;;9.94;48.79;102506.72;5010344;28;20033;-70
2021/06/13 02:47:49;;;;;;;;;;;;;;;9.98;48.63;102509.25;5012193;28;20984;-71
2021/06/13 02:50:18;;;;;;;6.38;1.70;;;;;;;9.94;48.89;102502.34;5008370;28;20051;-71
2021/06/13 02:53:19;;;;;;;9.63;1.92;;;;;;;9.93;48.72;102510.22;5009003;28;20033;-71
2021/06/13 02:55:53;;;;;;;5.18;2.13;;;;;;;9.86;48.96;102500.72;5006770;28;20164;-71
2021/06/13 02:58:48;;;;;;;6.18;2.45;;;;;;;9.84;48.86;102512.94;5012207;28;20030;-71
2021/06/13 03:01:18;;;;;;;7.95;1.42;;;;;;;9.84;48.58;102515.53;5025946;28;20045;-71
2021/06/13 03:03:45;;;;;;;10.85;2.83;;;;;;;9.74;49.22;102519.94;5008465;28;20063;-70
2021/06/13 03:06:19;;;;;;;7.32;2.20;;;;;;;9.74;49.12;102517.31;5010370;28;20125;-69
2021/06/13 03:08:48;;;;;;;6.75;1.70;;;;;;;9.64;49.56;102523.53;5011385;28;20038;-69
2021/06/13 03:11:16;;;;;;;6.25;1.60;;;;;;;9.40;50.33;102523.72;5009380;28;20105;-69
2021/06/13 03:13:47;;;;;;;8.80;1.75;;;;;;;9.35;50.74;102525.53;5008522;28;20478;-69
2021/06/13 03:16:14;;;;;;;9.52;2.25;;;;;;;9.54;50.04;102521.03;5024534;28;20513;-69
2021/06/13 03:18:44;;;;;;;13.80;2.17;;;;;;;9.60;49.42;102517.47;5010370;28;20107;-69
2021/06/13 03:21:12;;;;;;;7.13;1.88;;;;;;;9.58;49.78;102524.44;5010670;28;20622;-69
2021/06/13 03:23:40;;;;;;;11.48;2.53;;;;;;;9.63;49.67;102529.63;5011368;28;20079;-72
2021/06/13 03:26:12;;;;;;;13.65;2.33;;;;;;;9.67;49.53;102532.19;5010836;28;20049;-72
2021/06/13 03:28:39;;;;;;;12.40;2.92;;;;;;;9.74;49.88;102531.25;5008806;28;20073;-71
2021/06/13 03:31:07;;;;;;;8.48;1.83;;;;;;;9.73;49.53;102545.19;5010461;28;20428;-72
2021/06/13 03:33:36;;;;;;;9.18;2.25;;;;;;;9.71;49.58;102540.88;5011942;28;20065;-72
2021/06/13 03:36:05;;;;;;;6.03;2.20;;;;;;;9.68;49.46;102540.88;5008801;28;20030;-72
2021/06/13 03:38:33;;;;;;;5.05;1.65;;;;;;;9.71;50.00;102546.94;5011842;28;20033;-73
2021/06/13 03:40:59;;;;;;;7.93;1.50;;;;;;;9.73;50.07;102542.59;5020887;28;20486;-71
2021/06/13 03:43:26;;;;;;;4.82;1.88;;;;;;;9.69;49.95;102547.84;5014280;28;20037;-71
2021/06/13 03:45:52;;;;;;;7.88;2.00;;;;;;;9.82;49.90;102546.03;5024217;28;20022;-71
2021/06/13 03:48:20;;;;;;;7.78;1.70;;;;;;;9.91;49.87;102545.94;5010374;28;20030;-70
2021/06/13 03:50:47;;;;;;;9.50;2.38;;;;;;;10.00;49.63;102548.44;5010367;28;20038;-71
2021/06/13 03:53:13;;;;;;;11.77;2.13;;;;;;;10.01;49.58;102547.53;5007725;28;20116;-69
2021/06/13 03:55:39;;;;;;;11.55;2.40;;;;;;;10.13;49.29;102543.94;5007563;28;20101;-70
2021/06/13 03:58:07;;;;;;;6.70;2.00;;;;;;;10.27;49.37;102547.25;5012719;28;20667;-70
2021/06/13 04:00:33;;;;;;;6.18;2.00;;;;;;;10.40;48.71;102561.03;5026166;28;20041;-69
2021/06/13 04:03:01;;;;;;;11.05;2.33;;;;;;;10.51;48.88;102556.53;5009629;28;20033;-69
2021/06/13 04:05:32;;;;;;;13.68;3.15;;;;;;;10.59;48.18;102557.31;5014962;28;20032;-71
2021/06/13 04:07:57;;;;;;;9.55;2.03;;;;;;;10.62;48.42;102565.09;5018527;28;20045;-71
2021/06/13 04:10:25;;;;;;;10.32;1.75;;;;;;;10.74;48.10;102555.38;5015128;28;20033;-71
2021/06/13 04:12:51;;;;;;;4.15;2.38;;;;;;;10.75;47.89;102557.06;5003716;28;20045;-69
2021/06/13 04:15:20;;;;;;;11.43;2.67;;;;;;;10.79;47.92;102550.91;5015308;28;20383;-70
2021/06/13 04:17:46;;;;;;;7.32;1.90;;;;;;;10.92;47.11;102562.97;5013298;28;20681;-71
2021/06/13 04:20:13;;;;;;;6.97;2.10;;;;;;;11.14;47.16;102560.03;5018632;28;20029;-69
2021/06/13 04:22:40;;;;;;;9.07;2.33;;;;;;;11.09;46.93;102554.88;5010361;28;20100;-69
2021/06/13 04:25:12;;;;;;;7.60;2.58;;;;;;;11.03;47.42;102560.19;5015347;28;20064;-69
2021/06/13 04:27:38;;;;;;;;;;;;;;;10.90;48.00;102554.28;4997039;28;20029;-69
2021/06/13 04:30:08;;;;;;;5.03;2.00;;;;;;;11.17;47.18;102542.56;5010791;28;20705;-69
2021/06/13 04:32:34;;;;;;;8.48;1.60;;;;;;;11.33;46.84;102553.63;5012687;28;20483;-68
2021/06/13 04:35:00;;;;;;;8.88;1.83;;;;;;;11.46;47.09;102549.03;5015516;28;20046;-68
2021/06/13 04:37:26;;;;;;;8.60;1.75;;;;;;;11.51;46.20;102555.09;5013424;28;20033;-72
2021/06/13 04:39:52;;;;;;;7.82;2.35;;;;;;;11.43;46.19;102549.97;5019216;28;20103;-74
2021/06/13 04:42:17;;;;;;;6.18;2.00;;;;;;;11.81;46.35;102553.69;5017162;28;20030;-73
2021/06/13 04:44:43;;;;;;;10.73;2.13;;;;;;;11.92;45.28;102542.16;5016473;28;20508;-74
2021/06/13 04:47:10;;;;;;;7.10;1.63;;;;;;;11.98;45.42;102547.28;5017891;28;20450;-71
2021/06/13 04:49:36;;;;;;;13.05;1.80;;;;;;;12.06;45.34;102545.34;5014870;28;20033;-71
2021/06/13 04:52:02;;;;;;;6.13;1.85;;;;;;;12.28;44.66;102536.16;5017878;28;20033;-71
2021/06/13 04:54:38;;;;;;;8.52;2.40;;;;;;;12.46;44.60;102539.28;5014279;28;20041;-72
2021/06/13 04:57:32;;;;;;;11.65;1.58;;;;;;;12.46;44.90;102545.41;5031645;28;20090;-72
2021/06/13 04:59:57;;;;;;;11.02;2.30;;;;;;;12.57;43.47;102547.78;5034776;28;20057;-70
2021/06/13 05:02:23;;;;;;;9.93;2.17;;;;;;;12.29;44.50;102553.63;5012209;28;20076;-72
2021/06/13 05:04:48;;;;;;;6.75;2.38;;;;;;;13.10;43.30;102544.88;5016629;28;20029;-71
2021/06/13 05:07:14;;;;;;;6.60;1.17;;;;;;;14.86;39.37;102546.19;5014030;28;20026;-69
2021/06/13 05:09:43;;;;;;;5.93;2.38;;;;;;;17.15;34.40;102537.91;5014548;28;20029;-70
2021/06/13 05:12:11;;;;;;;9.88;2.83;;;;;;;18.89;31.54;102530.97;5016925;28;20036;-69
2021/06/13 05:14:36;;;;;;;10.10;1.77;;;;;;;20.40;29.57;102537.28;5016364;28;20080;-73
2021/06/13 05:17:05;;;;;;;8.10;1.70;;;;;;;21.41;27.86;102524.41;5013434;28;20522;-74
2021/06/13 05:19:30;;;;;;;5.00;1.05;;;;;;;21.60;28.05;102538.31;5013714;28;20067;-73
2021/06/13 05:21:56;;;;;;;6.25;1.20;;;;;;;22.56;26.46;102539.38;5015585;28;20045;-74
2021/06/13 05:24:21;;;;;;;6.50;1.40;;;;;;;22.64;26.09;102536.19;4997480;28;20419;-72
2021/06/13 05:26:47;;;;;;;4.88;1.55;;;;;;;22.93;25.95;102544.97;5011007;28;20406;-72
2021/06/13 05:29:12;;;;;;;5.63;1.52;;;;;;;22.49;26.20;102545.19;5011915;28;20080;-72
2021/06/13 05:31:39;;;;;;;4.43;1.15;;;;;;;23.77;24.45;102546.38;5031195;28;20046;-72
2021/06/13 05:34:04;;;;;;;9.77;1.63;;;;;;;22.78;24.50;102544.19;5014021;28;20045;-73
2021/06/13 05:36:30;;;;;;;4.93;2.05;;;;;;;22.93;24.94;102550.28;5013832;28;20092;-72
2021/06/13 05:38:55;;;;;;;6.55;1.38;;;;;;;23.11;24.39;102553.53;5015652;28;20060;-75
2021/06/13 05:41:21;;;;;;;6.90;1.83;;;;;;;23.50;23.76;102556.28;5014912;28;20143;-75
2021/06/13 05:43:47;;;;;;;4.13;1.88;;;;;;;24.20;23.79;102547.81;5015398;28;20152;-72
2021/06/13 05:46:12;;;;;;;8.65;1.35;;;;;;;24.67;23.08;102546.19;5012912;28;20049;-72
2021/06/13 05:48:38;;;;;;;3.53;0.95;;;;;;;24.50;22.62;102539.41;5013743;28;20060;-73
2021/06/13 05:51:04;;;;;;;6.75;1.15;;;;;;;24.46;22.72;102553.97;5012094;28;20491;-73
2021/06/13 05:53:30;;;;;;;4.85;1.35;;;;;;;25.45;21.97;102556.31;5013602;28;20037;-72
2021/06/13 05:55:56;;;;;;;7.07;1.02;;;;;;;24.62;22.28;102548.34;5016457;28;20034;-74
2021/06/13 05:58:22;;;;;;;2.80;1.15;;;;;;;24.86;22.37;102556.34;5011938;28;20410;-71
2021/06/13 06:00:48;;;;;;;4.55;1.30;;;;;;;24.60;22.88;102551.13;5014913;28;20037;-70
2021/06/13 06:03:14;;;;;;;6.07;1.45;;;;;;;24.12;22.38;102553.69;5011131;28;20371;-71
2021/06/13 06:05:39;;;;;;;6.18;1.27;;;;;;;24.52;22.29;102553.50;5015180;28;20061;-73
2021/06/13 06:08:06;;;;;;;7.28;1.27;;;;;;;24.36;22.71;102556.41;5013050;28;20037;-73
2021/06/13 06:10:33;;;;;;;5.40;0.85;;;;;;;24.07;22.85;102563.03;5014021;28;20036;-72
2021/06/13 06:13:04;;;;;;;4.47;1.77;;;;;;;24.87;22.58;102560.72;5013424;28;20033;-71
2021/06/13 06:15:32;;;;;;;5.30;1.43;;;;;;;24.73;22.71;102567.13;5001542;28;20040;-71
2021/06/13 06:17:57;;;;;;;4.80;1.85;;;;;;;24.39;22.32;102568.69;5013387;28;20037;-73
2021/06/13 06:20:26;;;;;;;8.15;1.77;;;;;;;23.59;23.15;102575.19;5013771;28;20037;-73
2021/06/13 06:22:51;;;;;;;8.30;1.48;;;;;;;24.11;22.56;102580.53;5013145;28;20117;-71
2021/06/13 06:25:19;;;;;;;4.82;1.63;;;;;;;24.51;22.46;102580.38;5010723;28;20129;-72
2021/06/13 06:27:44;;;;;;;8.20;0.98;;;;;;;25.08;22.06;102581.50;5013090;28;20029;-74
2021/06/13 06:30:12;;;;;;;2.58;1.17;;;;;;;26.50;20.08;102582.88;5012088;28;20402;-73
2021/06/13 06:32:38;;;;;;;4.65;1.65;;;;;;;26.96;19.28;102587.13;5011354;28;20515;-75
2021/06/13 06:35:06;;;;;;;6.05;1.13;;;;;;;26.02;20.15;102580.44;5012621;28;20030;-73
2021/06/13 06:37:32;;;;;;;6.47;1.55;;;;;;;25.93;19.67;102589.22;5012286;28;20037;-72
2021/06/13 06:39:57;;;;;;;7.28;1.30;;;;;;;25.00;19.84;102596.31;5013302;28;20026;-71
2021/06/13 06:42:23;;;;;;;2.70;1.08;;;;;;;24.55;20.42;102601.41;5012032;28;20030;-72
2021/06/13 06:44:48;;;;;;;6.05;0.90;;;;;;;25.45;19.46;102600.97;5012350;28;20395;-71
2021/06/13 06:47:14;;;;;;;4.32;1.05;;;;;;;24.89;20.19;102609.59;5010631;28;20049;-71
2021/06/13 06:49:39;;;;;;;3.70;1.52;;;;;;;25.80;19.79;102610.75;5011068;28;20049;-71
2021/06/13 06:52:06;;;;;;;5.72;1.30;;;;;;;25.86;18.96;102608.47;5011091;28;20040;-71
2021/06/13 06:54:32;;;;;;;3.88;1.27;;;;;;;25.15;19.48;102606.81;5009369;28;20038;-70
2021/06/13 06:56:58;;;;;;;5.15;1.15;;;;;;;25.47;19.39;102615.94;5012162;28;20080;-71
2021/06/13 06:59:23;;;;;;;6.30;0.95;;;;;;;24.60;20.55;102625.97;5010884;28;20036;-71
2021/06/13 07:01:49;;;;;;;7.93;1.65;;;;;;;25.37;20.27;102622.09;5009838;28;20025;-70
2021/06/13 07:04:14;;;;;;;4.18;0.98;;;;;;;25.09;20.69;102623.34;5013117;28;20491;-71
2021/06/13 07:06:40;;;;;;;4.38;1.20;;;;;;;25.26;18.65;102623.78;5010940;28;20506;-71
2021/06/13 07:09:05;;;;;;;6.18;0.85;;;;;;;24.98;19.49;102625.00;4999949;28;20040;-71
2021/06/13 07:11:31;;;;;;;6.28;0.90;;;;;;;24.50;19.89;102630.25;5009195;28;20130;-71
2021/06/13 07:13:56;;;;;;;5.15;1.10;;;;;;;24.92;19.24;102628.09;5013392;28;20030;-70
2021/06/13 07:16:22;;;;;;;4.57;1.45;;;;;;;26.30;18.25;102632.72;5009027;28;20042;-72
2021/06/13 07:18:48;;;;;;;5.45;1.48;;;;;;;26.26;18.86;102629.44;5012750;28;20029;-72
2021/06/13 07:21:15;;;;;;;7.90;1.20;;;;;;;27.19;17.90;102630.84;5011519;28;20046;-72
2021/06/13 07:23:40;;;;;;;5.30;0.98;;;;;;;26.70;19.11;102633.06;5011747;28;20037;-71
2021/06/13 07:26:09;;;;;;;2.53;0.90;;;;;;;25.50;19.38;102638.06;5008960;28;20053;-71
2021/06/13 07:28:34;;;;;;;5.63;1.60;;;;;;;26.48;18.28;102639.28;5011036;28;20041;-72
2021/06/13 07:31:01;;;;;;;5.10;0.95;;;;;;;26.83;17.66;102653.50;5007770;28;20040;-70
2021/06/13 07:33:27;;;;;;;4.40;1.65;;;;;;;24.88;20.24;102656.03;5006488;28;20034;-69
2021/06/13 07:35:53;;;;;;;5.00;0.98;;;;;;;24.64;20.03;102653.34;5009698;28;20487;-71
2021/06/13 07:38:22;;;;;;;4.38;0.80;;;;;;;24.90;19.79;102664.78;5008318;28;20118;-70
2021/06/13 07:40:48;;;;;;;7.65;1.25;;;;;;;25.83;19.01;102664.09;5010953;28;20037;-72
2021/06/13 07:43:14;;;;;;;5.80;1.48;;;;;;;25.03;18.64;102670.97;5007984;28;20218;-72
2021/06/13 07:45:40;;;;;;;5.25;0.65;;;;;;;25.64;18.83;102672.69;5010411;28;20108;-72
2021/06/13 07:48:10;;;;;;;6.15;1.10;;;;;;;25.27;19.01;102678.16;5008845;28;20036;-71
2021/06/13 07:50:37;;;;;;;5.95;1.13;;;;;;;25.96;18.31;102678.25;5009323;28;20113;-71
2021/06/13 07:53:03;;;;;;;3.88;1.05;;;;;;;26.25;18.31;102684.03;5008586;28;20033;-71
2021/06/13 07:55:29;;;;;;;2.30;1.10;;;;;;;27.08;18.45;102685.38;5009931;28;20430;-72
2021/06/13 07:57:54;;;;;;;5.40;2.08;;;;;;;26.97;17.63;102687.25;5009634;28;20040;-72
2021/06/13 08:00:23;;;;;;;3.42;0.98;;;;;;;27.22;16.91;102686.94;5006331;28;20475;-72
2021/06/13 08:02:52;;;;;;;8.40;1.40;;;;;;;26.11;18.72;102692.28;5023426;28;20168;-70
2021/06/13 08:05:25;;;;;;;4.43;1.25;;;;;;;25.27;19.07;102699.56;5006781;28;21132;-71
2021/06/13 08:08:01;;;;;;;4.57;1.50;;;;;;;24.96;20.42;102691.09;5010806;28;20036;-72
2021/06/13 08:10:28;;;;;;;5.70;1.13;;;;;;;24.58;19.57;102705.41;5006155;28;20123;-72
2021/06/13 08:12:54;;;;;;;7.38;0.75;;;;;;;25.68;19.01;102706.31;5008981;28;20112;-72
2021/06/13 08:15:20;;;;;;;7.38;0.93;;;;;;;25.70;18.23;102704.34;5020230;28;20158;-73
2021/06/13 08:17:47;;;;;;;4.07;1.23;;;;;;;26.76;18.81;102706.81;5006999;28;21835;-71
2021/06/13 08:20:13;;;;;;;3.38;0.73;;;;;;;26.42;17.54;102703.25;5005102;28;20059;-72
2021/06/13 08:22:39;;;;;;;8.32;1.00;;;;;;;26.04;18.18;102699.06;5005138;28;20041;-73
2021/06/13 08:25:05;;;;;;;4.22;1.35;;;;;;;26.15;18.35;102698.25;5005920;28;20041;-71
2021/06/13 08:27:31;;;;;;;5.72;1.70;;;;;;;27.81;17.10;102698.13;4992345;28;20030;-73
2021/06/13 08:29:57;;;;;;;3.75;1.70;;;;;;;28.90;16.39;102702.00;5004316;28;20336;-72
2021/06/13 08:32:24;;;;;;;4.68;1.52;;;;;;;27.43;17.50;102707.56;5008431;28;20453;-73
2021/06/13 08:34:49;;;;;;;4.30;1.27;;;;;;;26.83;17.93;102713.38;5005217;28;20037;-71
2021/06/13 08:37:15;;;;;;;6.65;1.20;;;;;;;26.31;18.28;102717.50;5005637;28;20041;-72
2021/06/13 08:39:40;;;;;;;4.88;0.90;;;;;;;25.96;18.76;102717.59;5007012;28;20119;-71
2021/06/13 08:42:06;;;;;;;4.20;1.20;;;;;;;25.79;19.14;102717.03;5006129;28;20430;-72
2021/06/13 08:44:32;;;;;;;3.50;1.58;;;;;;;25.57;18.86;102717.81;5020494;28;20041;-73
2021/06/13 08:46:59;;;;;;;3.80;1.23;;;;;;;25.85;18.95;102719.25;5008594;28;20041;-70
2021/06/13 08:49:26;;;;;;;9.77;1.33;;;;;;;24.89;20.68;102726.44;5004959;28;20499;-71
2021/06/13 08:51:52;;;;;;;4.32;1.15;;;;;;;23.87;22.41;102716.63;5006454;28;20119;-72
2021/06/13 08:54:18;;;;;;;9.48;2.20;;;;;;;22.10;24.38;102726.06;5010950;28;20037;-72
2021/06/13 08:56:43;;;;;;;2.83;1.00;;;;;;;22.68;23.20;102726.09;5013652;28;20033;-71
2021/06/13 08:59:10;;;;;;;5.50;1.77;;;;;;;23.39;22.94;102731.31;5010296;28;20057;-71
2021/06/13 09:01:38;;;;;;;5.03;1.38;;;;;;;24.86;21.48;102740.84;5023208;28;20468;-72
2021/06/13 09:04:04;;;;;;;5.40;1.50;;;;;;;24.72;21.70;102746.34;5011140;28;20042;-71
2021/06/13 09:06:30;;;;;;;4.80;1.65;;;;;;;24.49;21.70;102746.16;5008202;28;20029;-73
2021/06/13 09:08:55;;;;;;;3.65;1.48;;;;;;;23.31;23.44;102730.09;5006290;28;20259;-72
2021/06/13 09:11:33;;;;;;;5.80;1.77;;;;;;;22.35;24.56;102740.53;5010462;28;20414;-72
2021/06/13 09:14:13;;;;;;;8.90;1.10;;;;;;;23.35;23.34;102737.81;5006592;28;20091;-72
2021/06/13 09:16:47;;;;;;;4.88;2.13;;;;;;;20.96;26.10;102752.97;5013267;28;20549;-72
2021/06/13 09:19:13;;;;;;;9.35;1.63;;;;;;;22.57;24.38;102745.41;5010032;28;20076;-72
2021/06/13 09:21:40;;;;;;;3.78;1.63;;;;;;;22.16;24.15;102747.00;5025880;28;20037;-72
2021/06/13 09:24:17;;;;;;;5.95;2.47;;;;;;;19.20;28.84;102754.75;5007214;28;20041;-71
2021/06/13 09:26:44;;;;;;;4.97;1.73;;;;;;;19.68;28.29;102754.22;5005554;28;20242;-72
2021/06/13 09:29:10;;;;;;;6.63;1.63;;;;;;;21.74;26.58;102751.22;5009486;28;20117;-70
2021/06/13 09:31:37;;;;;;;10.57;1.60;;;;;;;22.39;24.02;102752.72;5009265;28;20331;-70
2021/06/13 09:34:08;;;;;;;6.43;1.45;;;;;;;20.01;26.50;102750.78;5009226;28;20068;-72
2021/06/13 09:36:35;;;;;;;9.93;1.90;;;;;;;21.21;26.40;102763.09;5007807;28;20112;-72
2021/06/13 09:39:06;;;;;;;6.10;1.45;;;;;;;23.05;24.14;102745.09;4995813;28;20041;-71
2021/06/13 09:41:34;;;;;;;3.05;1.25;;;;;;;23.30;23.97;102755.94;4996237;28;20113;-72
2021/06/13 09:44:04;;;;;;;4.18;2.00;;;;;;;23.82;22.97;102768.50;4997009;28;20065;-71
2021/06/13 09:46:54;;;;;;;7.85;1.90;;;;;;;23.36;23.03;102755.50;5009806;28;20034;-71
2021/06/13 09:49:20;;;;;;;5.35;1.88;;;;;;;21.89;24.68;102768.09;5014439;28;20046;-73
2021/06/13 09:51:52;;;;;;;4.57;1.40;;;;;;;20.87;27.01;102764.94;5013194;28;20041;-71
2021/06/13 09:54:27;;;;;;;6.88;1.73;;;;;;;22.35;27.40;102757.38;4995258;28;20038;-72
2021/06/13 09:56:53;;;;;;;9.43;1.10;;;;;;;22.01;24.10;102763.84;5006925;28;20487;-72
2021/06/13 09:59:27;;;;;;;4.57;1.52;;;;;;;21.43;25.03;102764.53;5009892;28;20053;-72
2021/06/13 10:01:57;;;;;;;6.15;1.33;;;;;;;22.02;25.87;102762.03;5010695;28;20041;-72
2021/06/13 10:04:30;;;;;;;5.65;2.00;;;;;;;21.28;26.53;102774.22;5011081;28;20029;-73
2021/06/13 10:06:58;;;;;;;7.30;1.80;;;;;;;20.39;27.39;102758.59;5023567;28;20033;-72
2021/06/13 10:09:35;;;;;;;4.95;1.65;;;;;;;21.69;26.49;102760.41;5009578;28;20112;-73
2021/06/13 10:12:07;;;;;;;6.07;1.90;;;;;;;20.56;26.56;102764.84;5009847;28;20116;-72
2021/06/13 10:14:33;;;;;;;5.90;1.38;;;;;;;20.80;25.77;102760.00;5006729;28;20065;-72
2021/06/13 10:16:59;;;;;;;6.38;1.27;;;;;;;21.15;26.16;102753.66;5010628;28;20058;-72
2021/06/13 10:19:38;;;;;;;6.50;1.35;;;;;;;22.30;26.04;102745.31;5011784;28;20040;-72
2021/06/13 10:22:05;;;;;;;8.05;2.10;;;;;;;21.08;26.59;102762.03;5013547;28;20482;-72
2021/06/13 10:24:33;;;;;;;7.72;2.08;;;;;;;20.50;27.59;102760.69;5008948;28;20038;-72
2021/06/13 10:27:08;;;;;;;3.55;1.70;;;;;;;20.26;27.62;102763.72;5010121;28;20124;-72
2021/06/13 10:29:36;;;;;;;3.05;1.63;;;;;;;21.02;26.92;102757.06;5003030;28;20040;-72
2021/06/13 10:32:04;;;;;;;4.25;1.15;;;;;;;21.42;23.97;102749.50;5011005;28;20049;-72
2021/06/13 10:34:33;;;;;;;5.95;1.45;;;;;;;21.81;25.91;102748.22;5000693;28;20116;-71
2021/06/13 10:37:01;;;;;;;5.82;1.83;;;;;;;22.61;24.93;102738.09;5011722;28;20129;-72
2021/06/13 10:39:30;;;;;;;4.88;1.88;;;;;;;21.27;25.96;102752.09;5011540;28;20505;-72
2021/06/13 10:41:55;;;;;;;4.97;1.27;;;;;;;21.46;24.89;102751.06;5012831;28;20108;-73
2021/06/13 10:44:24;;;;;;;3.08;1.33;;;;;;;22.69;24.67;102744.66;4997085;28;20038;-72
2021/06/13 10:46:54;;;;;;;4.78;1.45;;;;;;;21.71;25.90;102748.75;5013417;28;20060;-71
2021/06/13 10:49:30;;;;;;;3.78;1.60;;;;;;;21.02;26.30;102751.75;5007812;28;20173;-72
2021/06/13 10:52:08;;;;;;;6.05;1.65;;;;;;;21.90;24.92;102751.16;5015039;28;20116;-72
2021/06/13 10:54:37;;;;;;;5.53;2.03;;;;;;;22.46;26.48;102759.38;5012402;28;20061;-74
2021/06/13 10:57:05;;;;;;;5.82;2.03;;;;;;;21.39;26.05;102763.84;5010182;28;20588;-73
2021/06/13 10:59:42;;;;;;;6.03;1.13;;;;;;;21.41;25.07;102753.97;5009440;28;20610;-72
2021/06/13 11:02:11;;;;;;;4.03;1.38;;;;;;;21.57;23.64;102748.66;5009888;28;20401;-72
2021/06/13 11:04:40;;;;;;;7.03;2.25;;;;;;;21.95;24.90;102745.56;5011286;28;20036;-73
2021/06/13 11:07:05;;;;;;;7.85;1.38;;;;;;;22.85;24.15;102749.91;5010699;28;20642;-72
2021/06/13 11:09:31;;;;;;;2.85;1.67;;;;;;;22.61;24.21;102751.41;5009426;28;20041;-73
2021/06/13 11:11:56;;;;;;;5.25;1.88;;;;;;;22.91;23.60;102749.50;5009106;28;20081;-72
2021/06/13 11:14:26;;;;;;;2.88;1.40;;;;;;;23.12;24.33;102751.75;5008242;28;20034;-72
2021/06/13 11:16:58;;;;;;;5.25;1.52;;;;;;;23.84;22.08;102752.38;5010969;28;20038;-73
2021/06/13 11:19:25;;;;;;;4.05;1.48;;;;;;;23.41;23.94;102752.56;5008860;28;20030;-71
2021/06/13 11:22:17;;;;;;;4.22;1.52;;;;;;;22.93;24.71;102757.41;5010849;28;20042;-72
2021/06/13 11:24:45;;;;;;;;;;;;;;;22.42;23.77;102746.34;5006683;28;20033;-72
2021/06/13 11:27:11;;;;;;;3.00;1.02;;;;;;;22.77;23.24;102752.19;5010546;28;19913;-72
2021/06/13 11:30:08;;;;;;;8.27;1.35;;;;;;;22.98;23.29;102741.97;5009462;28;20036;-72
2021/06/13 11:32:50;;;;;;;2.80;1.20;;;;;;;22.96;22.34;102742.09;5008366;28;20371;-73